sensor_id;sensor_type;location;lat;lon;timestamp;P1;durP1;ratioP1;P2;durP2;ratioP2
33279;SDS011;20403;43.114;12.434;2024-01-16T00:01:26;30.88;;;8.48;;
33279;SDS011;20403;43.114;12.434;2024-01-16T00:03:52;25.88;;;8.68;;
33279;SDS011;20403;43.114;12.434;2024-01-16T00:06:17;29.70;;;8.25;;
33279;SDS011;20403;43.114;12.434;2024-01-16T00:08:42;23.77;;;7.10;;
33279;SDS011;20403;43.114;12.434;2024-01-16T00:11:08;30.15;;;8.40;;
33279;SDS011;20403;43.114;12.434;2024-01-16T00:13:33;25.17;;;7.88;;
33279;SDS011;20403;43.114;12.434;2024-01-16T00:16:01;28.45;;;6.88;;
33279;SDS011;20403;43.114;12.434;2024-01-16T00:18:27;24.38;;;6.80;;
33279;SDS011;20403;43.114;12.434;2024-01-16T00:20:53;32.13;;;7.85;;
33279;SDS011;20403;43.114;12.434;2024-01-16T00:23:18;23.67;;;7.00;;
33279;SDS011;20403;43.114;12.434;2024-01-16T00:25:44;24.48;;;7.40;;
33279;SDS011;20403;43.114;12.434;2024-01-16T00:28:09;28.83;;;8.00;;
33279;SDS011;20403;43.114;12.434;2024-01-16T00:30:35;28.05;;;7.65;;
33279;SDS011;20403;43.114;12.434;2024-01-16T00:33:00;25.75;;;6.93;;
33279;SDS011;20403;43.114;12.434;2024-01-16T00:35:25;34.92;;;8.80;;
33279;SDS011;20403;43.114;12.434;2024-01-16T00:37:51;28.80;;;7.22;;
33279;SDS011;20403;43.114;12.434;2024-01-16T00:40:17;29.60;;;7.32;;
33279;SDS011;20403;43.114;12.434;2024-01-16T00:42:42;27.80;;;7.75;;
33279;SDS011;20403;43.114;12.434;2024-01-16T00:45:08;25.00;;;6.60;;
33279;SDS011;20403;43.114;12.434;2024-01-16T00:47:33;29.67;;;8.23;;
33279;SDS011;20403;43.114;12.434;2024-01-16T00:49:59;24.42;;;6.88;;
33279;SDS011;20403;43.114;12.434;2024-01-16T00:52:26;28.85;;;7.60;;
33279;SDS011;20403;43.114;12.434;2024-01-16T00:54:52;36.13;;;7.65;;
33279;SDS011;20403;43.114;12.434;2024-01-16T00:57:17;33.88;;;8.40;;
33279;SDS011;20403;43.114;12.434;2024-01-16T00:59:44;31.33;;;8.35;;
33279;SDS011;20403;43.114;12.434;2024-01-16T01:02:10;27.85;;;7.70;;
33279;SDS011;20403;43.114;12.434;2024-01-16T01:04:37;35.72;;;7.00;;
33279;SDS011;20403;43.114;12.434;2024-01-16T01:07:02;32.65;;;6.82;;
33279;SDS011;20403;43.114;12.434;2024-01-16T01:09:28;29.55;;;7.20;;
33279;SDS011;20403;43.114;12.434;2024-01-16T01:11:53;30.00;;;6.82;;
33279;SDS011;20403;43.114;12.434;2024-01-16T01:14:18;20.05;;;5.75;;
33279;SDS011;20403;43.114;12.434;2024-01-16T01:16:44;30.73;;;6.30;;
33279;SDS011;20403;43.114;12.434;2024-01-16T01:19:09;28.15;;;7.45;;
33279;SDS011;20403;43.114;12.434;2024-01-16T01:21:35;36.17;;;7.30;;
33279;SDS011;20403;43.114;12.434;2024-01-16T01:24:01;22.35;;;6.65;;
33279;SDS011;20403;43.114;12.434;2024-01-16T01:26:26;20.02;;;5.30;;
33279;SDS011;20403;43.114;12.434;2024-01-16T01:28:51;26.90;;;7.32;;
33279;SDS011;20403;43.114;12.434;2024-01-16T01:31:17;30.00;;;7.35;;
33279;SDS011;20403;43.114;12.434;2024-01-16T01:33:43;28.15;;;7.03;;
33279;SDS011;20403;43.114;12.434;2024-01-16T01:36:08;27.52;;;5.93;;
33279;SDS011;20403;43.114;12.434;2024-01-16T01:38:33;30.67;;;6.85;;
33279;SDS011;20403;43.114;12.434;2024-01-16T01:40:59;27.27;;;6.32;;
33279;SDS011;20403;43.114;12.434;2024-01-16T01:43:25;29.58;;;6.75;;
33279;SDS011;20403;43.114;12.434;2024-01-16T01:46:10;28.10;;;6.07;;
33279;SDS011;20403;43.114;12.434;2024-01-16T01:48:41;33.65;;;5.80;;
33279;SDS011;20403;43.114;12.434;2024-01-16T01:51:07;21.52;;;5.28;;
33279;SDS011;20403;43.114;12.434;2024-01-16T01:53:33;21.98;;;5.25;;
33279;SDS011;20403;43.114;12.434;2024-01-16T01:56:04;26.33;;;5.70;;
33279;SDS011;20403;43.114;12.434;2024-01-16T01:58:36;24.70;;;5.30;;
33279;SDS011;20403;43.114;12.434;2024-01-16T02:01:05;26.77;;;6.13;;
33279;SDS011;20403;43.114;12.434;2024-01-16T02:03:32;21.55;;;5.15;;
33279;SDS011;20403;43.114;12.434;2024-01-16T02:06:04;24.30;;;5.85;;
33279;SDS011;20403;43.114;12.434;2024-01-16T02:08:30;27.88;;;5.03;;
33279;SDS011;20403;43.114;12.434;2024-01-16T02:10:56;22.52;;;5.07;;
33279;SDS011;20403;43.114;12.434;2024-01-16T02:13:21;26.30;;;6.32;;
33279;SDS011;20403;43.114;12.434;2024-01-16T02:15:48;25.80;;;5.80;;
33279;SDS011;20403;43.114;12.434;2024-01-16T02:18:15;21.52;;;5.10;;
33279;SDS011;20403;43.114;12.434;2024-01-16T02:20:41;28.27;;;5.95;;
33279;SDS011;20403;43.114;12.434;2024-01-16T02:23:07;23.67;;;5.18;;
33279;SDS011;20403;43.114;12.434;2024-01-16T02:25:33;24.83;;;5.47;;
33279;SDS011;20403;43.114;12.434;2024-01-16T02:28:00;24.05;;;5.22;;
33279;SDS011;20403;43.114;12.434;2024-01-16T02:30:26;34.30;;;5.95;;
33279;SDS011;20403;43.114;12.434;2024-01-16T02:32:51;16.95;;;5.03;;
33279;SDS011;20403;43.114;12.434;2024-01-16T02:35:17;25.75;;;5.35;;
33279;SDS011;20403;43.114;12.434;2024-01-16T02:37:43;27.60;;;6.20;;
33279;SDS011;20403;43.114;12.434;2024-01-16T02:40:09;27.30;;;5.22;;
33279;SDS011;20403;43.114;12.434;2024-01-16T02:42:35;22.15;;;5.15;;
33279;SDS011;20403;43.114;12.434;2024-01-16T02:45:02;21.27;;;4.63;;
33279;SDS011;20403;43.114;12.434;2024-01-16T02:47:29;21.08;;;5.05;;
33279;SDS011;20403;43.114;12.434;2024-01-16T02:49:54;15.43;;;4.05;;
33279;SDS011;20403;43.114;12.434;2024-01-16T02:52:20;17.35;;;4.53;;
33279;SDS011;20403;43.114;12.434;2024-01-16T02:54:45;18.98;;;5.03;;
33279;SDS011;20403;43.114;12.434;2024-01-16T02:57:11;26.85;;;4.90;;
33279;SDS011;20403;43.114;12.434;2024-01-16T02:59:36;24.20;;;5.22;;
33279;SDS011;20403;43.114;12.434;2024-01-16T03:02:02;28.38;;;4.68;;
33279;SDS011;20403;43.114;12.434;2024-01-16T03:04:27;26.30;;;5.35;;
33279;SDS011;20403;43.114;12.434;2024-01-16T03:06:53;21.58;;;5.25;;
33279;SDS011;20403;43.114;12.434;2024-01-16T03:09:18;25.42;;;5.53;;
33279;SDS011;20403;43.114;12.434;2024-01-16T03:11:44;26.92;;;5.55;;
33279;SDS011;20403;43.114;12.434;2024-01-16T03:14:09;26.90;;;4.93;;
33279;SDS011;20403;43.114;12.434;2024-01-16T03:16:34;22.90;;;4.57;;
33279;SDS011;20403;43.114;12.434;2024-01-16T03:19:00;31.92;;;5.55;;
33279;SDS011;20403;43.114;12.434;2024-01-16T03:21:25;23.73;;;4.72;;
33279;SDS011;20403;43.114;12.434;2024-01-16T03:23:51;25.63;;;5.80;;
33279;SDS011;20403;43.114;12.434;2024-01-16T03:26:16;25.98;;;4.70;;
33279;SDS011;20403;43.114;12.434;2024-01-16T03:28:42;21.95;;;5.20;;
33279;SDS011;20403;43.114;12.434;2024-01-16T03:31:07;19.55;;;5.05;;
33279;SDS011;20403;43.114;12.434;2024-01-16T03:33:33;19.52;;;4.68;;
33279;SDS011;20403;43.114;12.434;2024-01-16T03:36:00;19.90;;;4.45;;
33279;SDS011;20403;43.114;12.434;2024-01-16T03:38:25;14.23;;;3.60;;
33279;SDS011;20403;43.114;12.434;2024-01-16T03:40:51;22.00;;;4.60;;
33279;SDS011;20403;43.114;12.434;2024-01-16T03:43:17;17.33;;;4.47;;
33279;SDS011;20403;43.114;12.434;2024-01-16T03:45:42;19.10;;;5.38;;
33279;SDS011;20403;43.114;12.434;2024-01-16T03:48:08;17.67;;;4.38;;
33279;SDS011;20403;43.114;12.434;2024-01-16T03:50:34;19.65;;;5.25;;
33279;SDS011;20403;43.114;12.434;2024-01-16T03:53:01;18.10;;;5.13;;
33279;SDS011;20403;43.114;12.434;2024-01-16T03:55:28;20.42;;;4.43;;
33279;SDS011;20403;43.114;12.434;2024-01-16T03:57:54;13.93;;;4.22;;
33279;SDS011;20403;43.114;12.434;2024-01-16T04:00:20;19.83;;;4.53;;
33279;SDS011;20403;43.114;12.434;2024-01-16T04:02:45;21.27;;;4.63;;
33279;SDS011;20403;43.114;12.434;2024-01-16T04:05:11;20.08;;;4.05;;
33279;SDS011;20403;43.114;12.434;2024-01-16T04:07:36;11.60;;;3.42;;
33279;SDS011;20403;43.114;12.434;2024-01-16T04:10:01;15.27;;;3.75;;
33279;SDS011;20403;43.114;12.434;2024-01-16T04:12:28;16.30;;;4.07;;
33279;SDS011;20403;43.114;12.434;2024-01-16T04:14:53;18.08;;;3.85;;
33279;SDS011;20403;43.114;12.434;2024-01-16T04:17:18;14.35;;;3.80;;
33279;SDS011;20403;43.114;12.434;2024-01-16T04:19:45;18.05;;;5.07;;
33279;SDS011;20403;43.114;12.434;2024-01-16T04:22:10;16.67;;;4.32;;
33279;SDS011;20403;43.114;12.434;2024-01-16T04:24:36;20.52;;;3.83;;
33279;SDS011;20403;43.114;12.434;2024-01-16T04:27:01;22.50;;;4.00;;
33279;SDS011;20403;43.114;12.434;2024-01-16T04:29:27;15.63;;;3.95;;
33279;SDS011;20403;43.114;12.434;2024-01-16T04:31:53;18.63;;;4.50;;
33279;SDS011;20403;43.114;12.434;2024-01-16T04:34:18;13.82;;;4.07;;
33279;SDS011;20403;43.114;12.434;2024-01-16T04:36:43;14.00;;;4.78;;
33279;SDS011;20403;43.114;12.434;2024-01-16T04:39:09;13.85;;;3.90;;
33279;SDS011;20403;43.114;12.434;2024-01-16T04:41:34;18.25;;;4.43;;
33279;SDS011;20403;43.114;12.434;2024-01-16T04:44:01;12.82;;;3.88;;
33279;SDS011;20403;43.114;12.434;2024-01-16T04:46:26;16.00;;;4.35;;
33279;SDS011;20403;43.114;12.434;2024-01-16T04:48:51;15.35;;;3.97;;
33279;SDS011;20403;43.114;12.434;2024-01-16T04:51:17;15.70;;;4.20;;
33279;SDS011;20403;43.114;12.434;2024-01-16T04:53:42;13.93;;;3.70;;
33279;SDS011;20403;43.114;12.434;2024-01-16T04:56:08;18.92;;;4.18;;
33279;SDS011;20403;43.114;12.434;2024-01-16T04:58:33;12.73;;;3.60;;
33279;SDS011;20403;43.114;12.434;2024-01-16T05:00:58;11.80;;;3.25;;
33279;SDS011;20403;43.114;12.434;2024-01-16T05:03:24;12.43;;;3.40;;
33279;SDS011;20403;43.114;12.434;2024-01-16T05:05:49;11.55;;;3.55;;
33279;SDS011;20403;43.114;12.434;2024-01-16T05:08:15;19.92;;;3.83;;
33279;SDS011;20403;43.114;12.434;2024-01-16T05:10:40;9.13;;;3.67;;
33279;SDS011;20403;43.114;12.434;2024-01-16T05:13:05;14.80;;;3.65;;
33279;SDS011;20403;43.114;12.434;2024-01-16T05:15:31;15.68;;;3.80;;
33279;SDS011;20403;43.114;12.434;2024-01-16T05:17:56;19.60;;;3.83;;
33279;SDS011;20403;43.114;12.434;2024-01-16T05:20:22;15.48;;;3.88;;
33279;SDS011;20403;43.114;12.434;2024-01-16T05:22:47;14.95;;;3.65;;
33279;SDS011;20403;43.114;12.434;2024-01-16T05:25:13;8.35;;;3.10;;
33279;SDS011;20403;43.114;12.434;2024-01-16T05:27:38;11.20;;;3.80;;
33279;SDS011;20403;43.114;12.434;2024-01-16T05:30:04;18.75;;;4.15;;
33279;SDS011;20403;43.114;12.434;2024-01-16T05:32:30;13.05;;;3.47;;
33279;SDS011;20403;43.114;12.434;2024-01-16T05:34:56;15.75;;;4.20;;
33279;SDS011;20403;43.114;12.434;2024-01-16T05:37:21;9.40;;;3.28;;
33279;SDS011;20403;43.114;12.434;2024-01-16T05:39:46;11.13;;;3.15;;
33279;SDS011;20403;43.114;12.434;2024-01-16T05:42:12;13.18;;;3.72;;
33279;SDS011;20403;43.114;12.434;2024-01-16T05:44:37;14.23;;;3.95;;
33279;SDS011;20403;43.114;12.434;2024-01-16T05:47:03;22.90;;;4.05;;
33279;SDS011;20403;43.114;12.434;2024-01-16T05:49:29;9.85;;;4.10;;
33279;SDS011;20403;43.114;12.434;2024-01-16T05:51:54;13.60;;;4.45;;
33279;SDS011;20403;43.114;12.434;2024-01-16T05:54:20;14.02;;;4.03;;
33279;SDS011;20403;43.114;12.434;2024-01-16T05:56:45;15.57;;;3.83;;
33279;SDS011;20403;43.114;12.434;2024-01-16T05:59:11;15.70;;;4.90;;
33279;SDS011;20403;43.114;12.434;2024-01-16T06:01:36;11.95;;;3.60;;
33279;SDS011;20403;43.114;12.434;2024-01-16T06:04:03;9.65;;;3.70;;
33279;SDS011;20403;43.114;12.434;2024-01-16T06:06:28;14.23;;;5.03;;
33279;SDS011;20403;43.114;12.434;2024-01-16T06:08:54;12.23;;;3.53;;
33279;SDS011;20403;43.114;12.434;2024-01-16T06:11:29;11.25;;;4.22;;
33279;SDS011;20403;43.114;12.434;2024-01-16T06:13:55;13.13;;;4.43;;
33279;SDS011;20403;43.114;12.434;2024-01-16T06:16:20;15.75;;;4.75;;
33279;SDS011;20403;43.114;12.434;2024-01-16T06:18:46;13.75;;;3.80;;
33279;SDS011;20403;43.114;12.434;2024-01-16T06:21:11;13.73;;;3.95;;
33279;SDS011;20403;43.114;12.434;2024-01-16T06:23:37;14.90;;;4.40;;
33279;SDS011;20403;43.114;12.434;2024-01-16T06:26:02;16.17;;;4.43;;
33279;SDS011;20403;43.114;12.434;2024-01-16T06:28:28;15.93;;;4.57;;
33279;SDS011;20403;43.114;12.434;2024-01-16T06:30:53;11.68;;;4.03;;
33279;SDS011;20403;43.114;12.434;2024-01-16T06:33:19;19.42;;;4.00;;
33279;SDS011;20403;43.114;12.434;2024-01-16T06:35:44;15.65;;;4.22;;
33279;SDS011;20403;43.114;12.434;2024-01-16T06:38:10;12.93;;;3.83;;
33279;SDS011;20403;43.114;12.434;2024-01-16T06:40:35;11.57;;;3.70;;
33279;SDS011;20403;43.114;12.434;2024-01-16T06:43:01;17.65;;;4.28;;
33279;SDS011;20403;43.114;12.434;2024-01-16T06:45:26;11.20;;;3.65;;
33279;SDS011;20403;43.114;12.434;2024-01-16T06:47:51;12.95;;;3.72;;
33279;SDS011;20403;43.114;12.434;2024-01-16T06:50:17;13.35;;;3.70;;
33279;SDS011;20403;43.114;12.434;2024-01-16T06:52:42;9.15;;;4.05;;
33279;SDS011;20403;43.114;12.434;2024-01-16T06:55:08;13.98;;;4.35;;
33279;SDS011;20403;43.114;12.434;2024-01-16T06:57:33;10.70;;;3.80;;
33279;SDS011;20403;43.114;12.434;2024-01-16T06:59:58;11.13;;;3.53;;
33279;SDS011;20403;43.114;12.434;2024-01-16T07:02:24;11.18;;;3.08;;
33279;SDS011;20403;43.114;12.434;2024-01-16T07:04:51;9.75;;;4.20;;
33279;SDS011;20403;43.114;12.434;2024-01-16T07:07:16;12.98;;;3.63;;
33279;SDS011;20403;43.114;12.434;2024-01-16T07:09:42;13.88;;;3.85;;
33279;SDS011;20403;43.114;12.434;2024-01-16T07:12:08;13.68;;;4.05;;
33279;SDS011;20403;43.114;12.434;2024-01-16T07:14:33;13.57;;;3.75;;
33279;SDS011;20403;43.114;12.434;2024-01-16T07:16:59;7.22;;;3.58;;
33279;SDS011;20403;43.114;12.434;2024-01-16T07:19:24;14.38;;;3.38;;
33279;SDS011;20403;43.114;12.434;2024-01-16T07:21:49;11.63;;;3.40;;
33279;SDS011;20403;43.114;12.434;2024-01-16T07:24:15;11.07;;;4.18;;
33279;SDS011;20403;43.114;12.434;2024-01-16T07:26:40;8.18;;;3.50;;
33279;SDS011;20403;43.114;12.434;2024-01-16T07:29:06;12.02;;;4.40;;
33279;SDS011;20403;43.114;12.434;2024-01-16T07:31:32;18.23;;;3.60;;
33279;SDS011;20403;43.114;12.434;2024-01-16T07:33:57;9.80;;;3.63;;
33279;SDS011;20403;43.114;12.434;2024-01-16T07:36:22;10.57;;;3.60;;
33279;SDS011;20403;43.114;12.434;2024-01-16T07:38:48;12.93;;;3.90;;
33279;SDS011;20403;43.114;12.434;2024-01-16T07:41:13;10.48;;;3.30;;
33279;SDS011;20403;43.114;12.434;2024-01-16T07:43:39;15.27;;;4.00;;
33279;SDS011;20403;43.114;12.434;2024-01-16T07:46:04;13.60;;;4.50;;
33279;SDS011;20403;43.114;12.434;2024-01-16T07:48:30;14.90;;;5.20;;
33279;SDS011;20403;43.114;12.434;2024-01-16T07:50:55;10.43;;;3.95;;
33279;SDS011;20403;43.114;12.434;2024-01-16T07:53:21;9.95;;;3.97;;
33279;SDS011;20403;43.114;12.434;2024-01-16T07:55:46;10.30;;;3.92;;
33279;SDS011;20403;43.114;12.434;2024-01-16T07:58:12;22.48;;;5.22;;
33279;SDS011;20403;43.114;12.434;2024-01-16T08:00:38;12.80;;;4.88;;
33279;SDS011;20403;43.114;12.434;2024-01-16T08:03:06;8.88;;;4.28;;
33279;SDS011;20403;43.114;12.434;2024-01-16T08:05:32;12.25;;;4.07;;
33279;SDS011;20403;43.114;12.434;2024-01-16T08:07:58;14.07;;;5.90;;
33279;SDS011;20403;43.114;12.434;2024-01-16T08:10:23;18.20;;;6.43;;
33279;SDS011;20403;43.114;12.434;2024-01-16T08:12:49;12.75;;;4.55;;
33279;SDS011;20403;43.114;12.434;2024-01-16T08:15:15;19.48;;;7.32;;
33279;SDS011;20403;43.114;12.434;2024-01-16T08:17:40;12.15;;;5.38;;
33279;SDS011;20403;43.114;12.434;2024-01-16T08:20:06;18.20;;;6.65;;
33279;SDS011;20403;43.114;12.434;2024-01-16T08:22:35;17.50;;;6.55;;
33279;SDS011;20403;43.114;12.434;2024-01-16T08:25:03;22.33;;;7.05;;
33279;SDS011;20403;43.114;12.434;2024-01-16T08:27:33;14.25;;;6.00;;
33279;SDS011;20403;43.114;12.434;2024-01-16T08:29:59;15.40;;;6.93;;
33279;SDS011;20403;43.114;12.434;2024-01-16T08:32:24;22.45;;;8.85;;
33279;SDS011;20403;43.114;12.434;2024-01-16T08:34:50;22.35;;;8.55;;
33279;SDS011;20403;43.114;12.434;2024-01-16T08:37:15;30.95;;;9.02;;
33279;SDS011;20403;43.114;12.434;2024-01-16T08:39:41;23.67;;;8.73;;
33279;SDS011;20403;43.114;12.434;2024-01-16T08:42:06;29.13;;;9.35;;
33279;SDS011;20403;43.114;12.434;2024-01-16T08:44:32;19.20;;;8.50;;
33279;SDS011;20403;43.114;12.434;2024-01-16T08:46:57;21.13;;;9.10;;
33279;SDS011;20403;43.114;12.434;2024-01-16T08:49:24;25.75;;;7.70;;
33279;SDS011;20403;43.114;12.434;2024-01-16T08:51:50;21.08;;;7.05;;
33279;SDS011;20403;43.114;12.434;2024-01-16T08:54:15;21.27;;;7.72;;
33279;SDS011;20403;43.114;12.434;2024-01-16T08:56:41;24.60;;;6.95;;
33279;SDS011;20403;43.114;12.434;2024-01-16T08:59:06;20.42;;;6.43;;
33279;SDS011;20403;43.114;12.434;2024-01-16T09:01:31;19.40;;;6.25;;
33279;SDS011;20403;43.114;12.434;2024-01-16T09:03:57;19.40;;;5.50;;
33279;SDS011;20403;43.114;12.434;2024-01-16T09:06:22;25.95;;;6.90;;
33279;SDS011;20403;43.114;12.434;2024-01-16T09:08:48;22.23;;;5.78;;
33279;SDS011;20403;43.114;12.434;2024-01-16T09:11:13;24.38;;;5.75;;
33279;SDS011;20403;43.114;12.434;2024-01-16T09:13:39;26.48;;;5.82;;
33279;SDS011;20403;43.114;12.434;2024-01-16T09:16:04;28.70;;;5.57;;
33279;SDS011;20403;43.114;12.434;2024-01-16T09:18:30;26.70;;;5.75;;
33279;SDS011;20403;43.114;12.434;2024-01-16T09:20:55;23.70;;;7.80;;
33279;SDS011;20403;43.114;12.434;2024-01-16T09:23:21;24.80;;;7.95;;
33279;SDS011;20403;43.114;12.434;2024-01-16T09:25:47;36.08;;;8.05;;
33279;SDS011;20403;43.114;12.434;2024-01-16T09:28:13;32.78;;;8.85;;
33279;SDS011;20403;43.114;12.434;2024-01-16T09:33:07;23.52;;;7.50;;
33279;SDS011;20403;43.114;12.434;2024-01-16T09:35:34;23.10;;;7.55;;
33279;SDS011;20403;43.114;12.434;2024-01-16T09:38:00;22.08;;;7.55;;
33279;SDS011;20403;43.114;12.434;2024-01-16T09:40:25;17.90;;;7.18;;
33279;SDS011;20403;43.114;12.434;2024-01-16T09:42:51;19.50;;;6.03;;
33279;SDS011;20403;43.114;12.434;2024-01-16T09:45:19;19.85;;;4.13;;
33279;SDS011;20403;43.114;12.434;2024-01-16T09:47:47;27.10;;;5.50;;
33279;SDS011;20403;43.114;12.434;2024-01-16T09:50:16;20.27;;;4.65;;
33279;SDS011;20403;43.114;12.434;2024-01-16T09:52:45;31.63;;;6.30;;
33279;SDS011;20403;43.114;12.434;2024-01-16T09:55:11;23.13;;;7.28;;
33279;SDS011;20403;43.114;12.434;2024-01-16T09:57:37;30.45;;;6.53;;
33279;SDS011;20403;43.114;12.434;2024-01-16T10:00:06;23.40;;;6.95;;
33279;SDS011;20403;43.114;12.434;2024-01-16T10:05:02;19.23;;;5.88;;
33279;SDS011;20403;43.114;12.434;2024-01-16T10:07:28;20.33;;;6.05;;
33279;SDS011;20403;43.114;12.434;2024-01-16T10:09:58;27.08;;;6.30;;
33279;SDS011;20403;43.114;12.434;2024-01-16T10:12:23;24.13;;;6.10;;
33279;SDS011;20403;43.114;12.434;2024-01-16T10:14:50;27.67;;;6.88;;
33279;SDS011;20403;43.114;12.434;2024-01-16T10:17:16;24.58;;;6.15;;
33279;SDS011;20403;43.114;12.434;2024-01-16T10:19:49;25.98;;;6.53;;
33279;SDS011;20403;43.114;12.434;2024-01-16T10:22:21;24.63;;;5.90;;
33279;SDS011;20403;43.114;12.434;2024-01-16T10:25:12;27.65;;;6.75;;
33279;SDS011;20403;43.114;12.434;2024-01-16T10:27:38;24.52;;;5.72;;
33279;SDS011;20403;43.114;12.434;2024-01-16T10:30:04;28.70;;;6.07;;
33279;SDS011;20403;43.114;12.434;2024-01-16T10:32:32;24.85;;;6.32;;
33279;SDS011;20403;43.114;12.434;2024-01-16T10:35:04;21.10;;;5.82;;
33279;SDS011;20403;43.114;12.434;2024-01-16T10:40:22;26.00;;;6.70;;
33279;SDS011;20403;43.114;12.434;2024-01-16T10:42:58;39.58;;;7.70;;
33279;SDS011;20403;43.114;12.434;2024-01-16T10:45:24;26.35;;;7.15;;
33279;SDS011;20403;43.114;12.434;2024-01-16T10:48:03;21.58;;;7.25;;
33279;SDS011;20403;43.114;12.434;2024-01-16T10:50:30;24.40;;;6.07;;
33279;SDS011;20403;43.114;12.434;2024-01-16T10:52:57;22.08;;;6.00;;
33279;SDS011;20403;43.114;12.434;2024-01-16T10:55:26;26.95;;;6.13;;
33279;SDS011;20403;43.114;12.434;2024-01-16T10:57:54;28.80;;;6.75;;
33279;SDS011;20403;43.114;12.434;2024-01-16T11:00:21;23.67;;;7.20;;
33279;SDS011;20403;43.114;12.434;2024-01-16T11:03:01;18.40;;;6.10;;
33279;SDS011;20403;43.114;12.434;2024-01-16T11:05:33;21.73;;;6.45;;
33279;SDS011;20403;43.114;12.434;2024-01-16T11:08:00;22.48;;;5.72;;
33279;SDS011;20403;43.114;12.434;2024-01-16T11:10:27;28.40;;;7.60;;
33279;SDS011;20403;43.114;12.434;2024-01-16T11:12:53;24.55;;;6.35;;
33279;SDS011;20403;43.114;12.434;2024-01-16T11:15:20;18.58;;;4.88;;
33279;SDS011;20403;43.114;12.434;2024-01-16T11:17:46;18.73;;;4.30;;
33279;SDS011;20403;43.114;12.434;2024-01-16T11:20:12;15.48;;;4.63;;
33279;SDS011;20403;43.114;12.434;2024-01-16T11:22:41;21.30;;;4.75;;
33279;SDS011;20403;43.114;12.434;2024-01-16T11:25:08;22.50;;;5.38;;
33279;SDS011;20403;43.114;12.434;2024-01-16T11:27:35;22.67;;;5.90;;
33279;SDS011;20403;43.114;12.434;2024-01-16T11:30:02;19.30;;;4.00;;
33279;SDS011;20403;43.114;12.434;2024-01-16T11:32:35;23.85;;;5.57;;
33279;SDS011;20403;43.114;12.434;2024-01-16T11:35:02;28.65;;;5.07;;
33279;SDS011;20403;43.114;12.434;2024-01-16T11:37:29;19.83;;;4.13;;
33279;SDS011;20403;43.114;12.434;2024-01-16T11:42:42;14.52;;;3.72;;
33279;SDS011;20403;43.114;12.434;2024-01-16T11:45:22;17.15;;;3.53;;
33279;SDS011;20403;43.114;12.434;2024-01-16T11:48:09;17.27;;;3.83;;
33279;SDS011;20403;43.114;12.434;2024-01-16T11:50:38;20.08;;;3.65;;
33279;SDS011;20403;43.114;12.434;2024-01-16T11:53:04;11.18;;;2.88;;
33279;SDS011;20403;43.114;12.434;2024-01-16T11:55:30;12.57;;;3.85;;
33279;SDS011;20403;43.114;12.434;2024-01-16T11:58:21;17.48;;;4.45;;
33279;SDS011;20403;43.114;12.434;2024-01-16T12:01:13;17.40;;;3.83;;
33279;SDS011;20403;43.114;12.434;2024-01-16T12:03:41;16.48;;;4.82;;
33279;SDS011;20403;43.114;12.434;2024-01-16T12:06:06;27.90;;;4.70;;
33279;SDS011;20403;43.114;12.434;2024-01-16T12:08:33;42.97;;;6.38;;
33279;SDS011;20403;43.114;12.434;2024-01-16T12:11:01;22.40;;;5.35;;
33279;SDS011;20403;43.114;12.434;2024-01-16T12:13:27;25.42;;;5.38;;
33279;SDS011;20403;43.114;12.434;2024-01-16T12:15:59;8.60;;;3.05;;
33279;SDS011;20403;43.114;12.434;2024-01-16T12:18:26;16.50;;;4.43;;
33279;SDS011;20403;43.114;12.434;2024-01-16T12:20:51;14.52;;;4.03;;
33279;SDS011;20403;43.114;12.434;2024-01-16T12:23:16;16.52;;;3.50;;
33279;SDS011;20403;43.114;12.434;2024-01-16T12:25:42;17.58;;;3.85;;
33279;SDS011;20403;43.114;12.434;2024-01-16T12:28:08;9.40;;;2.88;;
33279;SDS011;20403;43.114;12.434;2024-01-16T12:30:37;9.85;;;2.70;;
33279;SDS011;20403;43.114;12.434;2024-01-16T12:33:12;16.38;;;3.47;;
33279;SDS011;20403;43.114;12.434;2024-01-16T12:35:39;9.57;;;2.45;;
33279;SDS011;20403;43.114;12.434;2024-01-16T12:38:06;11.70;;;2.60;;
33279;SDS011;20403;43.114;12.434;2024-01-16T12:40:37;19.25;;;3.55;;
33279;SDS011;20403;43.114;12.434;2024-01-16T12:43:05;9.93;;;2.80;;
33279;SDS011;20403;43.114;12.434;2024-01-16T12:45:32;10.55;;;2.97;;
33279;SDS011;20403;43.114;12.434;2024-01-16T12:47:59;14.75;;;3.20;;
33279;SDS011;20403;43.114;12.434;2024-01-16T12:50:26;10.25;;;2.70;;
33279;SDS011;20403;43.114;12.434;2024-01-16T12:53:27;14.80;;;3.00;;
33279;SDS011;20403;43.114;12.434;2024-01-16T12:55:49;11.30;;;2.83;;
33279;SDS011;20403;43.114;12.434;2024-01-16T12:58:23;10.98;;;2.50;;
33279;SDS011;20403;43.114;12.434;2024-01-16T13:00:51;8.98;;;2.63;;
33279;SDS011;20403;43.114;12.434;2024-01-16T13:03:17;8.32;;;2.53;;
33279;SDS011;20403;43.114;12.434;2024-01-16T13:05:44;11.05;;;2.90;;
33279;SDS011;20403;43.114;12.434;2024-01-16T13:08:18;10.68;;;2.10;;
33279;SDS011;20403;43.114;12.434;2024-01-16T13:10:45;16.08;;;2.80;;
33279;SDS011;20403;43.114;12.434;2024-01-16T13:13:15;6.75;;;2.53;;
33279;SDS011;20403;43.114;12.434;2024-01-16T13:15:43;15.80;;;4.03;;
33279;SDS011;20403;43.114;12.434;2024-01-16T13:18:17;11.40;;;3.17;;
33279;SDS011;20403;43.114;12.434;2024-01-16T13:20:52;10.65;;;2.40;;
33279;SDS011;20403;43.114;12.434;2024-01-16T13:23:19;9.32;;;2.63;;
33279;SDS011;20403;43.114;12.434;2024-01-16T13:25:48;35.38;;;6.13;;
33279;SDS011;20403;43.114;12.434;2024-01-16T13:28:15;9.90;;;3.10;;
33279;SDS011;20403;43.114;12.434;2024-01-16T13:30:42;8.80;;;2.78;;
33279;SDS011;20403;43.114;12.434;2024-01-16T13:33:08;16.05;;;3.00;;
33279;SDS011;20403;43.114;12.434;2024-01-16T13:35:37;19.15;;;4.00;;
33279;SDS011;20403;43.114;12.434;2024-01-16T13:38:05;13.43;;;3.70;;
33279;SDS011;20403;43.114;12.434;2024-01-16T13:40:32;15.27;;;3.53;;
33279;SDS011;20403;43.114;12.434;2024-01-16T13:42:58;11.27;;;3.17;;
33279;SDS011;20403;43.114;12.434;2024-01-16T13:45:24;18.65;;;4.07;;
33279;SDS011;20403;43.114;12.434;2024-01-16T13:47:50;16.40;;;3.83;;
33279;SDS011;20403;43.114;12.434;2024-01-16T13:50:15;9.52;;;2.85;;
33279;SDS011;20403;43.114;12.434;2024-01-16T13:52:42;15.10;;;3.72;;
33279;SDS011;20403;43.114;12.434;2024-01-16T13:55:08;16.67;;;3.90;;
33279;SDS011;20403;43.114;12.434;2024-01-16T13:57:34;12.38;;;2.78;;
33279;SDS011;20403;43.114;12.434;2024-01-16T14:00:01;13.45;;;2.60;;
33279;SDS011;20403;43.114;12.434;2024-01-16T14:02:28;12.38;;;2.80;;
33279;SDS011;20403;43.114;12.434;2024-01-16T14:04:54;11.75;;;3.05;;
33279;SDS011;20403;43.114;12.434;2024-01-16T14:07:20;19.25;;;3.70;;
33279;SDS011;20403;43.114;12.434;2024-01-16T14:09:45;18.25;;;4.28;;
33279;SDS011;20403;43.114;12.434;2024-01-16T14:12:11;20.02;;;3.47;;
33279;SDS011;20403;43.114;12.434;2024-01-16T14:14:36;22.80;;;3.60;;
33279;SDS011;20403;43.114;12.434;2024-01-16T14:17:05;23.08;;;4.32;;
33279;SDS011;20403;43.114;12.434;2024-01-16T14:19:30;21.08;;;4.88;;
33279;SDS011;20403;43.114;12.434;2024-01-16T14:21:56;30.35;;;3.70;;
33279;SDS011;20403;43.114;12.434;2024-01-16T14:24:21;16.52;;;3.90;;
33279;SDS011;20403;43.114;12.434;2024-01-16T14:26:47;15.60;;;3.97;;
33279;SDS011;20403;43.114;12.434;2024-01-16T14:29:12;17.33;;;3.45;;
33279;SDS011;20403;43.114;12.434;2024-01-16T14:31:38;14.77;;;4.18;;